sensor_id;sensor_type;location;lat;lon;timestamp;temperature;humidity
5980;DHT22;3016;50.308;8.258;2023-09-08T00:02:14;13.70;2.40
5980;DHT22;3016;50.308;8.258;2023-09-08T00:05:16;13.70;3.80
5980;DHT22;3016;50.308;8.258;2023-09-08T00:08:17;13.70;5.00
5980;DHT22;3016;50.308;8.258;2023-09-08T00:11:18;13.60;3.70
5980;DHT22;3016;50.308;8.258;2023-09-08T00:14:19;13.70;3.40
5980;DHT22;3016;50.308;8.258;2023-09-08T00:17:19;13.60;4.30
5980;DHT22;3016;50.308;8.258;2023-09-08T00:20:20;13.60;1.50
5980;DHT22;3016;50.308;8.258;2023-09-08T00:23:21;13.50;1.90
5980;DHT22;3016;50.308;8.258;2023-09-08T00:26:21;13.50;3.30
5980;DHT22;3016;50.308;8.258;2023-09-08T00:29:22;13.40;3.80
5980;DHT22;3016;50.308;8.258;2023-09-08T00:32:23;13.40;2.70
5980;DHT22;3016;50.308;8.258;2023-09-08T00:35:24;13.30;5.00
5980;DHT22;3016;50.308;8.258;2023-09-08T00:38:24;13.30;6.10
5980;DHT22;3016;50.308;8.258;2023-09-08T00:41:25;13.30;8.00
5980;DHT22;3016;50.308;8.258;2023-09-08T00:44:26;13.20;6.10
5980;DHT22;3016;50.308;8.258;2023-09-08T00:47:26;13.20;5.10
5980;DHT22;3016;50.308;8.258;2023-09-08T00:50:27;13.20;7.10
5980;DHT22;3016;50.308;8.258;2023-09-08T00:53:28;13.20;7.50
5980;DHT22;3016;50.308;8.258;2023-09-08T00:56:29;13.10;6.60
5980;DHT22;3016;50.308;8.258;2023-09-08T00:59:32;13.10;5.50
5980;DHT22;3016;50.308;8.258;2023-09-08T01:02:34;13.00;6.30
5980;DHT22;3016;50.308;8.258;2023-09-08T01:05:34;12.90;6.70
5980;DHT22;3016;50.308;8.258;2023-09-08T01:08:36;13.00;9.00
5980;DHT22;3016;50.308;8.258;2023-09-08T01:11:37;12.90;11.20
5980;DHT22;3016;50.308;8.258;2023-09-08T01:14:37;12.90;11.40
5980;DHT22;3016;50.308;8.258;2023-09-08T01:17:38;12.90;11.60
5980;DHT22;3016;50.308;8.258;2023-09-08T01:24:28;13.00;8.90
5980;DHT22;3016;50.308;8.258;2023-09-08T01:28:05;12.90;10.40
5980;DHT22;3016;50.308;8.258;2023-09-08T01:31:07;12.90;9.70
5980;DHT22;3016;50.308;8.258;2023-09-08T01:34:09;12.80;8.80
5980;DHT22;3016;50.308;8.258;2023-09-08T01:37:10;12.80;7.00
5980;DHT22;3016;50.308;8.258;2023-09-08T01:40:19;12.70;8.60
5980;DHT22;3016;50.308;8.258;2023-09-08T01:43:20;12.70;10.80
5980;DHT22;3016;50.308;8.258;2023-09-08T01:46:23;12.70;11.30
5980;DHT22;3016;50.308;8.258;2023-09-08T01:49:24;12.70;11.10
5980;DHT22;3016;50.308;8.258;2023-09-08T01:52:25;12.70;11.60
5980;DHT22;3016;50.308;8.258;2023-09-08T01:55:32;12.70;10.30
5980;DHT22;3016;50.308;8.258;2023-09-08T01:58:33;12.70;10.40
5980;DHT22;3016;50.308;8.258;2023-09-08T02:01:34;12.70;11.30
5980;DHT22;3016;50.308;8.258;2023-09-08T02:04:48;12.70;8.70
5980;DHT22;3016;50.308;8.258;2023-09-08T02:07:49;12.70;8.60
5980;DHT22;3016;50.308;8.258;2023-09-08T02:10:50;12.50;9.60
5980;DHT22;3016;50.308;8.258;2023-09-08T02:13:51;12.50;11.80
5980;DHT22;3016;50.308;8.258;2023-09-08T02:16:52;12.50;10.80
5980;DHT22;3016;50.308;8.258;2023-09-08T02:19:53;12.40;11.70
5980;DHT22;3016;50.308;8.258;2023-09-08T02:22:55;12.30;14.10
5980;DHT22;3016;50.308;8.258;2023-09-08T02:25:55;12.30;14.20
5980;DHT22;3016;50.308;8.258;2023-09-08T02:28:56;12.30;13.90
5980;DHT22;3016;50.308;8.258;2023-09-08T02:31:57;12.30;11.70
5980;DHT22;3016;50.308;8.258;2023-09-08T02:34:58;12.20;11.60
5980;DHT22;3016;50.308;8.258;2023-09-08T02:37:58;12.10;15.00
5980;DHT22;3016;50.308;8.258;2023-09-08T02:40:59;12.10;15.00
5980;DHT22;3016;50.308;8.258;2023-09-08T02:44:00;12.10;16.10
5980;DHT22;3016;50.308;8.258;2023-09-08T02:47:00;12.20;15.00
5980;DHT22;3016;50.308;8.258;2023-09-08T02:50:01;12.20;14.20
5980;DHT22;3016;50.308;8.258;2023-09-08T02:53:03;12.20;14.10
5980;DHT22;3016;50.308;8.258;2023-09-08T02:56:04;12.20;14.30
5980;DHT22;3016;50.308;8.258;2023-09-08T02:59:06;12.10;13.20
5980;DHT22;3016;50.308;8.258;2023-09-08T03:02:06;12.10;12.60
5980;DHT22;3016;50.308;8.258;2023-09-08T03:05:07;12.10;13.00
5980;DHT22;3016;50.308;8.258;2023-09-08T03:08:08;12.00;11.90
5980;DHT22;3016;50.308;8.258;2023-09-08T03:11:09;12.00;12.30
5980;DHT22;3016;50.308;8.258;2023-09-08T03:14:09;12.00;12.40
5980;DHT22;3016;50.308;8.258;2023-09-08T03:17:11;11.90;13.30
5980;DHT22;3016;50.308;8.258;2023-09-08T03:20:12;11.80;14.60
5980;DHT22;3016;50.308;8.258;2023-09-08T03:23:14;11.80;16.40
5980;DHT22;3016;50.308;8.258;2023-09-08T03:26:15;11.80;16.90
5980;DHT22;3016;50.308;8.258;2023-09-08T03:29:16;11.80;15.40
5980;DHT22;3016;50.308;8.258;2023-09-08T03:32:16;11.80;17.20
5980;DHT22;3016;50.308;8.258;2023-09-08T03:35:17;11.80;18.80
5980;DHT22;3016;50.308;8.258;2023-09-08T03:38:18;11.80;17.70
5980;DHT22;3016;50.308;8.258;2023-09-08T03:41:19;11.70;18.00
5980;DHT22;3016;50.308;8.258;2023-09-08T03:44:20;11.80;18.80
5980;DHT22;3016;50.308;8.258;2023-09-08T03:47:20;11.70;16.90
5980;DHT22;3016;50.308;8.258;2023-09-08T03:50:21;11.70;18.70
5980;DHT22;3016;50.308;8.258;2023-09-08T03:53:22;11.70;18.70
5980;DHT22;3016;50.308;8.258;2023-09-08T03:56:22;11.70;18.00
5980;DHT22;3016;50.308;8.258;2023-09-08T03:59:23;11.70;17.30
5980;DHT22;3016;50.308;8.258;2023-09-08T04:02:24;11.70;17.10
5980;DHT22;3016;50.308;8.258;2023-09-08T04:05:24;11.70;14.80
5980;DHT22;3016;50.308;8.258;2023-09-08T04:08:25;11.60;15.00
5980;DHT22;3016;50.308;8.258;2023-09-08T04:11:26;11.60;17.30
5980;DHT22;3016;50.308;8.258;2023-09-08T04:14:26;11.50;16.70
5980;DHT22;3016;50.308;8.258;2023-09-08T04:17:28;11.50;14.10
5980;DHT22;3016;50.308;8.258;2023-09-08T04:20:29;11.40;14.80
5980;DHT22;3016;50.308;8.258;2023-09-08T04:23:30;11.30;16.40
5980;DHT22;3016;50.308;8.258;2023-09-08T04:26:30;11.30;18.10
5980;DHT22;3016;50.308;8.258;2023-09-08T04:29:32;11.30;18.50
5980;DHT22;3016;50.308;8.258;2023-09-08T04:32:33;11.30;18.70
5980;DHT22;3016;50.308;8.258;2023-09-08T04:36:08;11.30;19.20
5980;DHT22;3016;50.308;8.258;2023-09-08T04:39:09;11.30;18.60
5980;DHT22;3016;50.308;8.258;2023-09-08T04:42:14;11.20;17.80
5980;DHT22;3016;50.308;8.258;2023-09-08T04:45:15;11.20;16.70
5980;DHT22;3016;50.308;8.258;2023-09-08T04:48:16;11.20;18.40
5980;DHT22;3016;50.308;8.258;2023-09-08T04:51:16;11.20;19.80
5980;DHT22;3016;50.308;8.258;2023-09-08T04:54:17;11.20;19.40
5980;DHT22;3016;50.308;8.258;2023-09-08T04:57:18;11.20;20.10
5980;DHT22;3016;50.308;8.258;2023-09-08T05:00:18;11.20;21.20
5980;DHT22;3016;50.308;8.258;2023-09-08T05:03:19;11.20;18.40
5980;DHT22;3016;50.308;8.258;2023-09-08T05:06:20;11.20;17.60
5980;DHT22;3016;50.308;8.258;2023-09-08T05:09:21;11.20;17.90
5980;DHT22;3016;50.308;8.258;2023-09-08T05:12:29;11.20;18.20
5980;DHT22;3016;50.308;8.258;2023-09-08T05:15:29;11.10;17.90
5980;DHT22;3016;50.308;8.258;2023-09-08T05:18:31;11.00;18.70
5980;DHT22;3016;50.308;8.258;2023-09-08T05:21:33;11.00;21.90
5980;DHT22;3016;50.308;8.258;2023-09-08T05:24:34;11.00;24.30
5980;DHT22;3016;50.308;8.258;2023-09-08T05:27:35;11.10;25.50
5980;DHT22;3016;50.308;8.258;2023-09-08T05:30:35;11.10;23.50
5980;DHT22;3016;50.308;8.258;2023-09-08T05:33:36;11.10;23.10
5980;DHT22;3016;50.308;8.258;2023-09-08T05:36:38;11.20;23.20
5980;DHT22;3016;50.308;8.258;2023-09-08T05:39:40;11.20;24.20
5980;DHT22;3016;50.308;8.258;2023-09-08T05:42:41;11.20;23.50
5980;DHT22;3016;50.308;8.258;2023-09-08T05:45:42;11.20;24.10
5980;DHT22;3016;50.308;8.258;2023-09-08T05:48:42;11.20;26.10
5980;DHT22;3016;50.308;8.258;2023-09-08T05:51:44;11.30;27.60
5980;DHT22;3016;50.308;8.258;2023-09-08T05:54:44;11.40;29.20
5980;DHT22;3016;50.308;8.258;2023-09-08T05:57:45;11.50;30.20
5980;DHT22;3016;50.308;8.258;2023-09-08T06:00:46;11.70;28.50
5980;DHT22;3016;50.308;8.258;2023-09-08T06:03:46;11.80;26.90
5980;DHT22;3016;50.308;8.258;2023-09-08T06:06:47;11.80;27.90
5980;DHT22;3016;50.308;8.258;2023-09-08T06:09:48;11.90;28.10
5980;DHT22;3016;50.308;8.258;2023-09-08T06:12:48;12.10;29.70
5980;DHT22;3016;50.308;8.258;2023-09-08T06:15:51;12.20;29.90
5980;DHT22;3016;50.308;8.258;2023-09-08T06:18:51;12.30;29.90
5980;DHT22;3016;50.308;8.258;2023-09-08T06:21:52;12.40;28.90
5980;DHT22;3016;50.308;8.258;2023-09-08T06:24:53;12.50;29.20
5980;DHT22;3016;50.308;8.258;2023-09-08T06:27:54;12.60;31.70
5980;DHT22;3016;50.308;8.258;2023-09-08T06:30:54;12.70;30.90
5980;DHT22;3016;50.308;8.258;2023-09-08T06:33:55;12.70;31.40
5980;DHT22;3016;50.308;8.258;2023-09-08T06:36:56;12.90;31.60
5980;DHT22;3016;50.308;8.258;2023-09-08T06:39:56;13.00;34.10
5980;DHT22;3016;50.308;8.258;2023-09-08T06:42:57;13.10;32.60
5980;DHT22;3016;50.308;8.258;2023-09-08T06:45:58;13.20;29.90
5980;DHT22;3016;50.308;8.258;2023-09-08T06:48:59;13.30;28.50
5980;DHT22;3016;50.308;8.258;2023-09-08T06:52:00;13.50;26.20
5980;DHT22;3016;50.308;8.258;2023-09-08T06:55:00;13.70;23.30
5980;DHT22;3016;50.308;8.258;2023-09-08T06:58:01;13.80;21.90
5980;DHT22;3016;50.308;8.258;2023-09-08T07:01:02;14.00;18.30
5980;DHT22;3016;50.308;8.258;2023-09-08T07:04:03;14.20;19.80
5980;DHT22;3016;50.308;8.258;2023-09-08T07:07:04;14.40;22.60
5980;DHT22;3016;50.308;8.258;2023-09-08T07:10:08;14.60;19.00
5980;DHT22;3016;50.308;8.258;2023-09-08T07:13:10;14.80;16.20
5980;DHT22;3016;50.308;8.258;2023-09-08T07:16:11;14.90;15.70
5980;DHT22;3016;50.308;8.258;2023-09-08T07:19:11;15.10;15.00
5980;DHT22;3016;50.308;8.258;2023-09-08T07:22:12;15.30;12.70
5980;DHT22;3016;50.308;8.258;2023-09-08T07:25:13;15.50;8.10
5980;DHT22;3016;50.308;8.258;2023-09-08T07:28:14;15.70;2.00
5980;DHT22;3016;50.308;8.258;2023-09-08T07:31:16;16.00;1.00
5980;DHT22;3016;50.308;8.258;2023-09-08T07:34:16;16.30;1.00
5980;DHT22;3016;50.308;8.258;2023-09-08T07:37:17;16.60;1.00
5980;DHT22;3016;50.308;8.258;2023-09-08T07:40:18;17.00;1.00
5980;DHT22;3016;50.308;8.258;2023-09-08T07:43:18;17.50;1.00
5980;DHT22;3016;50.308;8.258;2023-09-08T07:46:19;17.90;1.00
5980;DHT22;3016;50.308;8.258;2023-09-08T07:49:20;18.40;1.00
5980;DHT22;3016;50.308;8.258;2023-09-08T07:52:20;18.70;1.00
5980;DHT22;3016;50.308;8.258;2023-09-08T07:55:22;19.10;1.00
5980;DHT22;3016;50.308;8.258;2023-09-08T07:58:23;19.40;1.00
5980;DHT22;3016;50.308;8.258;2023-09-08T08:01:24;19.60;1.00
5980;DHT22;3016;50.308;8.258;2023-09-08T08:04:25;19.80;1.00
5980;DHT22;3016;50.308;8.258;2023-09-08T08:07:26;20.00;1.00
5980;DHT22;3016;50.308;8.258;2023-09-08T08:10:26;20.20;1.00
5980;DHT22;3016;50.308;8.258;2023-09-08T08:13:27;20.50;1.00
5980;DHT22;3016;50.308;8.258;2023-09-08T08:16:28;20.70;1.00
5980;DHT22;3016;50.308;8.258;2023-09-08T08:19:29;20.90;1.00
5980;DHT22;3016;50.308;8.258;2023-09-08T08:22:30;21.00;1.00
5980;DHT22;3016;50.308;8.258;2023-09-08T08:25:30;21.50;1.00
5980;DHT22;3016;50.308;8.258;2023-09-08T08:28:31;22.00;1.00
5980;DHT22;3016;50.308;8.258;2023-09-08T08:31:32;22.20;1.00
5980;DHT22;3016;50.308;8.258;2023-09-08T08:34:33;22.30;1.00
5980;DHT22;3016;50.308;8.258;2023-09-08T08:37:34;22.50;1.00
5980;DHT22;3016;50.308;8.258;2023-09-08T08:40:38;22.70;1.00
5980;DHT22;3016;50.308;8.258;2023-09-08T08:43:40;23.30;1.00
5980;DHT22;3016;50.308;8.258;2023-09-08T08:46:42;23.30;1.00
5980;DHT22;3016;50.308;8.258;2023-09-08T08:49:44;23.40;1.00
5980;DHT22;3016;50.308;8.258;2023-09-08T08:52:47;23.60;1.00
5980;DHT22;3016;50.308;8.258;2023-09-08T08:55:49;23.80;1.00
5980;DHT22;3016;50.308;8.258;2023-09-08T08:58:51;24.00;1.00
5980;DHT22;3016;50.308;8.258;2023-09-08T09:01:54;24.00;1.00
5980;DHT22;3016;50.308;8.258;2023-09-08T09:04:54;24.10;1.00
5980;DHT22;3016;50.308;8.258;2023-09-08T09:07:58;24.50;1.00
5980;DHT22;3016;50.308;8.258;2023-09-08T09:10:59;24.70;1.00
5980;DHT22;3016;50.308;8.258;2023-09-08T09:13:59;25.30;1.00
5980;DHT22;3016;50.308;8.258;2023-09-08T09:17:00;25.90;1.00
5980;DHT22;3016;50.308;8.258;2023-09-08T09:20:32;26.40;1.00
5980;DHT22;3016;50.308;8.258;2023-09-08T09:23:34;27.00;1.00
5980;DHT22;3016;50.308;8.258;2023-09-08T09:26:35;27.00;1.00
5980;DHT22;3016;50.308;8.258;2023-09-08T09:29:46;27.00;1.00
5980;DHT22;3016;50.308;8.258;2023-09-08T09:32:47;27.20;1.00
5980;DHT22;3016;50.308;8.258;2023-09-08T09:35:53;26.70;1.00
5980;DHT22;3016;50.308;8.258;2023-09-08T09:38:58;26.80;1.00
5980;DHT22;3016;50.308;8.258;2023-09-08T09:42:02;26.80;1.00
5980;DHT22;3016;50.308;8.258;2023-09-08T09:45:05;26.40;1.00
5980;DHT22;3016;50.308;8.258;2023-09-08T09:48:08;26.50;1.00
5980;DHT22;3016;50.308;8.258;2023-09-08T09:51:17;26.80;1.00
5980;DHT22;3016;50.308;8.258;2023-09-08T09:54:19;27.20;1.00
5980;DHT22;3016;50.308;8.258;2023-09-08T09:57:21;27.60;1.00
5980;DHT22;3016;50.308;8.258;2023-09-08T10:00:23;28.00;1.00
5980;DHT22;3016;50.308;8.258;2023-09-08T10:03:29;28.30;1.00
5980;DHT22;3016;50.308;8.258;2023-09-08T10:06:33;28.40;1.00
5980;DHT22;3016;50.308;8.258;2023-09-08T10:09:38;28.70;1.00
5980;DHT22;3016;50.308;8.258;2023-09-08T10:12:39;28.30;1.00
5980;DHT22;3016;50.308;8.258;2023-09-08T10:15:44;28.20;1.00
5980;DHT22;3016;50.308;8.258;2023-09-08T10:18:47;28.50;1.00
5980;DHT22;3016;50.308;8.258;2023-09-08T10:21:48;28.90;1.00
5980;DHT22;3016;50.308;8.258;2023-09-08T10:24:54;29.00;1.00
5980;DHT22;3016;50.308;8.258;2023-09-08T10:27:56;28.50;1.00
5980;DHT22;3016;50.308;8.258;2023-09-08T10:30:57;27.90;1.00
5980;DHT22;3016;50.308;8.258;2023-09-08T10:33:58;27.80;1.00
5980;DHT22;3016;50.308;8.258;2023-09-08T10:36:59;28.00;1.00
5980;DHT22;3016;50.308;8.258;2023-09-08T10:40:22;28.20;1.00
5980;DHT22;3016;50.308;8.258;2023-09-08T10:43:24;27.90;1.00
5980;DHT22;3016;50.308;8.258;2023-09-08T10:46:27;27.90;1.00
5980;DHT22;3016;50.308;8.258;2023-09-08T10:49:35;27.70;1.00
5980;DHT22;3016;50.308;8.258;2023-09-08T10:52:36;27.70;1.00
5980;DHT22;3016;50.308;8.258;2023-09-08T10:55:46;27.70;1.00
5980;DHT22;3016;50.308;8.258;2023-09-08T10:58:50;27.70;1.00
5980;DHT22;3016;50.308;8.258;2023-09-08T11:01:54;27.80;1.00
5980;DHT22;3016;50.308;8.258;2023-09-08T11:04:55;28.00;1.00
5980;DHT22;3016;50.308;8.258;2023-09-08T11:07:57;28.10;1.00
5980;DHT22;3016;50.308;8.258;2023-09-08T11:10:57;28.20;1.00
5980;DHT22;3016;50.308;8.258;2023-09-08T11:13:59;28.50;1.00
5980;DHT22;3016;50.308;8.258;2023-09-08T11:17:02;28.90;1.00
5980;DHT22;3016;50.308;8.258;2023-09-08T11:20:04;28.70;1.00
5980;DHT22;3016;50.308;8.258;2023-09-08T11:23:10;28.80;1.00
5980;DHT22;3016;50.308;8.258;2023-09-08T11:26:12;28.60;1.00
5980;DHT22;3016;50.308;8.258;2023-09-08T11:29:13;28.70;1.00
5980;DHT22;3016;50.308;8.258;2023-09-08T11:32:14;28.80;1.00
5980;DHT22;3016;50.308;8.258;2023-09-08T11:35:14;28.80;1.00
5980;DHT22;3016;50.308;8.258;2023-09-08T11:38:16;28.80;1.00
5980;DHT22;3016;50.308;8.258;2023-09-08T11:41:17;28.90;1.00
5980;DHT22;3016;50.308;8.258;2023-09-08T11:44:18;29.10;1.00
5980;DHT22;3016;50.308;8.258;2023-09-08T11:47:19;28.80;1.00
5980;DHT22;3016;50.308;8.258;2023-09-08T11:50:20;28.60;1.00
5980;DHT22;3016;50.308;8.258;2023-09-08T11:53:21;28.40;1.00
5980;DHT22;3016;50.308;8.258;2023-09-08T11:56:23;28.50;1.00
5980;DHT22;3016;50.308;8.258;2023-09-08T11:59:24;28.60;1.00
5980;DHT22;3016;50.308;8.258;2023-09-08T12:02:26;28.70;1.00
5980;DHT22;3016;50.308;8.258;2023-09-08T12:05:27;28.60;1.00
5980;DHT22;3016;50.308;8.258;2023-09-08T12:08:28;28.70;1.00
5980;DHT22;3016;50.308;8.258;2023-09-08T12:11:34;28.90;1.00
5980;DHT22;3016;50.308;8.258;2023-09-08T12:14:42;28.90;1.00
5980;DHT22;3016;50.308;8.258;2023-09-08T12:17:49;29.00;1.00
5980;DHT22;3016;50.308;8.258;2023-09-08T12:21:03;29.00;1.00
5980;DHT22;3016;50.308;8.258;2023-09-08T12:24:05;29.10;1.00
5980;DHT22;3016;50.308;8.258;2023-09-08T12:27:06;29.00;1.00
5980;DHT22;3016;50.308;8.258;2023-09-08T12:30:07;29.10;1.00
5980;DHT22;3016;50.308;8.258;2023-09-08T12:33:09;29.00;1.00
5980;DHT22;3016;50.308;8.258;2023-09-08T12:36:19;28.80;1.00
5980;DHT22;3016;50.308;8.258;2023-09-08T12:39:20;28.70;1.00
5980;DHT22;3016;50.308;8.258;2023-09-08T12:42:21;28.80;1.00
5980;DHT22;3016;50.308;8.258;2023-09-08T12:45:27;28.80;1.00
5980;DHT22;3016;50.308;8.258;2023-09-08T12:48:28;28.90;1.00
5980;DHT22;3016;50.308;8.258;2023-09-08T12:51:29;28.80;1.00
5980;DHT22;3016;50.308;8.258;2023-09-08T12:54:30;29.00;1.00
5980;DHT22;3016;50.308;8.258;2023-09-08T12:57:30;29.10;1.00
5980;DHT22;3016;50.308;8.258;2023-09-08T13:00:31;29.00;1.00
5980;DHT22;3016;50.308;8.258;2023-09-08T13:03:32;29.00;1.00
5980;DHT22;3016;50.308;8.258;2023-09-08T13:06:32;29.00;1.00
5980;DHT22;3016;50.308;8.258;2023-09-08T13:09:35;29.10;1.00
5980;DHT22;3016;50.308;8.258;2023-09-08T13:12:35;29.00;1.00
5980;DHT22;3016;50.308;8.258;2023-09-08T13:15:36;29.20;1.00
5980;DHT22;3016;50.308;8.258;2023-09-08T13:18:37;29.30;1.00
5980;DHT22;3016;50.308;8.258;2023-09-08T13:21:39;29.30;1.00
5980;DHT22;3016;50.308;8.258;2023-09-08T13:24:39;29.30;1.00
5980;DHT22;3016;50.308;8.258;2023-09-08T13:27:41;29.30;1.00
5980;DHT22;3016;50.308;8.258;2023-09-08T13:30:42;29.50;1.00
5980;DHT22;3016;50.308;8.258;2023-09-08T13:33:43;29.50;1.00
5980;DHT22;3016;50.308;8.258;2023-09-08T13:36:44;29.50;1.00
5980;DHT22;3016;50.308;8.258;2023-09-08T13:39:44;29.50;1.00
5980;DHT22;3016;50.308;8.258;2023-09-08T13:42:45;29.50;1.00
5980;DHT22;3016;50.308;8.258;2023-09-08T13:45:46;29.50;1.00
5980;DHT22;3016;50.308;8.258;2023-09-08T13:48:46;29.50;1.00
5980;DHT22;3016;50.308;8.258;2023-09-08T13:51:47;29.60;1.00
5980;DHT22;3016;50.308;8.258;2023-09-08T13:54:49;29.60;1.00
5980;DHT22;3016;50.308;8.258;2023-09-08T13:57:50;29.60;1.00
5980;DHT22;3016;50.308;8.258;2023-09-08T14:00:51;29.70;1.00
5980;DHT22;3016;50.308;8.258;2023-09-08T14:03:52;29.80;1.00
5980;DHT22;3016;50.308;8.258;2023-09-08T14:06:53;29.80;1.00
5980;DHT22;3016;50.308;8.258;2023-09-08T14:09:54;29.80;1.00
5980;DHT22;3016;50.308;8.258;2023-09-08T14:12:54;29.80;1.00
5980;DHT22;3016;50.308;8.258;2023-09-08T14:15:55;29.70;1.00
5980;DHT22;3016;50.308;8.258;2023-09-08T14:18:56;29.60;1.00
5980;DHT22;3016;50.308;8.258;2023-09-08T14:21:56;29.80;1.00
5980;DHT22;3016;50.308;8.258;2023-09-08T14:24:57;29.80;1.00
5980;DHT22;3016;50.308;8.258;2023-09-08T14:27:58;29.60;1.00
5980;DHT22;3016;50.308;8.258;2023-09-08T14:30:59;29.50;1.00
5980;DHT22;3016;50.308;8.258;2023-09-08T14:33:59;29.60;1.00
5980;DHT22;3016;50.308;8.258;2023-09-08T14:37:00;29.80;1.00
5980;DHT22;3016;50.308;8.258;2023-09-08T14:40:01;29.80;1.00
5980;DHT22;3016;50.308;8.258;2023-09-08T14:43:03;29.70;1.00
5980;DHT22;3016;50.308;8.258;2023-09-08T14:46:04;29.80;1.00
5980;DHT22;3016;50.308;8.258;2023-09-08T14:49:05;29.80;1.00
5980;DHT22;3016;50.308;8.258;2023-09-08T14:52:05;29.80;1.00
5980;DHT22;3016;50.308;8.258;2023-09-08T14:55:06;29.90;1.00
5980;DHT22;3016;50.308;8.258;2023-09-08T14:58:07;29.90;1.00
5980;DHT22;3016;50.308;8.258;2023-09-08T15:01:08;29.70;1.00
5980;DHT22;3016;50.308;8.258;2023-09-08T15:04:09;29.80;1.00
5980;DHT22;3016;50.308;8.258;2023-09-08T15:07:09;29.70;1.00
5980;DHT22;3016;50.308;8.258;2023-09-08T15:10:10;29.70;1.00
5980;DHT22;3016;50.308;8.258;2023-09-08T15:13:11;29.60;1.00
5980;DHT22;3016;50.308;8.258;2023-09-08T15:16:12;29.60;1.00
5980;DHT22;3016;50.308;8.258;2023-09-08T15:19:12;29.80;1.00
5980;DHT22;3016;50.308;8.258;2023-09-08T15:22:13;29.80;1.00
5980;DHT22;3016;50.308;8.258;2023-09-08T15:25:14;29.70;1.00
5980;DHT22;3016;50.308;8.258;2023-09-08T15:28:15;29.60;1.00
5980;DHT22;3016;50.308;8.258;2023-09-08T15:31:16;29.60;1.00
5980;DHT22;3016;50.308;8.258;2023-09-08T15:34:17;29.60;1.00
5980;DHT22;3016;50.308;8.258;2023-09-08T15:37:18;29.70;1.00
5980;DHT22;3016;50.308;8.258;2023-09-08T15:40:19;29.80;1.00
5980;DHT22;3016;50.308;8.258;2023-09-08T15:43:20;29.70;1.00
5980;DHT22;3016;50.308;8.258;2023-09-08T15:46:21;29.80;1.00
5980;DHT22;3016;50.308;8.258;2023-09-08T15:49:21;29.80;1.00
5980;DHT22;3016;50.308;8.258;2023-09-08T15:52:22;29.60;1.00
5980;DHT22;3016;50.308;8.258;2023-09-08T15:55:23;29.30;1.00
5980;DHT22;3016;50.308;8.258;2023-09-08T15:58:24;29.30;1.00
5980;DHT22;3016;50.308;8.258;2023-09-08T16:01:25;29.40;1.00
5980;DHT22;3016;50.308;8.258;2023-09-08T16:04:26;29.40;1.00
5980;DHT22;3016;50.308;8.258;2023-09-08T16:07:27;29.30;1.00
5980;DHT22;3016;50.308;8.258;2023-09-08T16:10:27;29.40;1.00
5980;DHT22;3016;50.308;8.258;2023-09-08T16:13:30;29.40;1.00
5980;DHT22;3016;50.308;8.258;2023-09-08T16:16:31;29.40;1.00
5980;DHT22;3016;50.308;8.258;2023-09-08T16:19:35;29.50;1.00
5980;DHT22;3016;50.308;8.258;2023-09-08T16:22:35;29.50;1.00
5980;DHT22;3016;50.308;8.258;2023-09-08T16:25:36;29.40;1.00
5980;DHT22;3016;50.308;8.258;2023-09-08T16:28:37;29.40;1.00
5980;DHT22;3016;50.308;8.258;2023-09-08T16:31:38;29.30;1.00
5980;DHT22;3016;50.308;8.258;2023-09-08T16:34:39;29.00;1.00
5980;DHT22;3016;50.308;8.258;2023-09-08T16:37:39;28.70;1.00
5980;DHT22;3016;50.308;8.258;2023-09-08T16:40:40;28.70;1.00
5980;DHT22;3016;50.308;8.258;2023-09-08T16:43:41;28.60;1.00
5980;DHT22;3016;50.308;8.258;2023-09-08T16:46:42;28.40;1.00
5980;DHT22;3016;50.308;8.258;2023-09-08T16:49:44;28.40;1.00
5980;DHT22;3016;50.308;8.258;2023-09-08T16:52:45;28.40;1.00
5980;DHT22;3016;50.308;8.258;2023-09-08T16:55:46;28.20;1.00
5980;DHT22;3016;50.308;8.258;2023-09-08T16:58:46;28.10;1.00
5980;DHT22;3016;50.308;8.258;2023-09-08T17:01:50;27.90;1.00
5980;DHT22;3016;50.308;8.258;2023-09-08T17:04:50;27.80;1.00
5980;DHT22;3016;50.308;8.258;2023-09-08T17:07:51;27.60;1.00
5980;DHT22;3016;50.308;8.258;2023-09-08T17:10:56;27.50;1.00
5980;DHT22;3016;50.308;8.258;2023-09-08T17:14:04;27.40;1.00
5980;DHT22;3016;50.308;8.258;2023-09-08T17:17:07;27.20;1.00
5980;DHT22;3016;50.308;8.258;2023-09-08T17:20:10;27.00;1.00
5980;DHT22;3016;50.308;8.258;2023-09-08T17:23:17;26.90;1.00
5980;DHT22;3016;50.308;8.258;2023-09-08T17:26:22;26.80;1.00
5980;DHT22;3016;50.308;8.258;2023-09-08T17:29:23;26.60;1.00
5980;DHT22;3016;50.308;8.258;2023-09-08T17:32:23;26.40;1.00
5980;DHT22;3016;50.308;8.258;2023-09-08T17:35:24;26.10;1.00
5980;DHT22;3016;50.308;8.258;2023-09-08T17:38:25;25.70;1.00
5980;DHT22;3016;50.308;8.258;2023-09-08T17:41:25;25.50;1.00
5980;DHT22;3016;50.308;8.258;2023-09-08T17:44:26;25.30;1.00
5980;DHT22;3016;50.308;8.258;2023-09-08T17:47:27;25.10;1.00
5980;DHT22;3016;50.308;8.258;2023-09-08T17:50:27;24.90;1.00
5980;DHT22;3016;50.308;8.258;2023-09-08T17:53:30;24.60;1.00
5980;DHT22;3016;50.308;8.258;2023-09-08T17:56:35;24.30;1.00
5980;DHT22;3016;50.308;8.258;2023-09-08T17:59:38;24.00;1.00
5980;DHT22;3016;50.308;8.258;2023-09-08T18:02:40;23.80;1.00
5980;DHT22;3016;50.308;8.258;2023-09-08T18:05:41;23.60;1.00
5980;DHT22;3016;50.308;8.258;2023-09-08T18:08:42;23.30;1.00
5980;DHT22;3016;50.308;8.258;2023-09-08T18:11:46;23.10;1.00
5980;DHT22;3016;50.308;8.258;2023-09-08T18:14:52;22.90;1.00
5980;DHT22;3016;50.308;8.258;2023-09-08T18:17:59;22.80;1.00
5980;DHT22;3016;50.308;8.258;2023-09-08T18:20:59;22.60;1.00
5980;DHT22;3016;50.308;8.258;2023-09-08T18:24:00;22.40;1.00
5980;DHT22;3016;50.308;8.258;2023-09-08T18:27:01;22.30;1.00
5980;DHT22;3016;50.308;8.258;2023-09-08T18:30:02;22.20;1.00
5980;DHT22;3016;50.308;8.258;2023-09-08T18:33:03;22.10;1.00
5980;DHT22;3016;50.308;8.258;2023-09-08T18:36:07;22.00;1.00
5980;DHT22;3016;50.308;8.258;2023-09-08T18:39:08;21.80;1.00
5980;DHT22;3016;50.308;8.258;2023-09-08T18:42:09;21.80;1.00
5980;DHT22;3016;50.308;8.258;2023-09-08T18:45:10;21.50;1.00
5980;DHT22;3016;50.308;8.258;2023-09-08T18:48:11;21.30;1.00
5980;DHT22;3016;50.308;8.258;2023-09-08T18:51:12;21.20;1.00
5980;DHT22;3016;50.308;8.258;2023-09-08T18:54:13;21.10;1.00
5980;DHT22;3016;50.308;8.258;2023-09-08T18:57:13;20.80;1.00
5980;DHT22;3016;50.308;8.258;2023-09-08T19:00:14;20.70;1.00
5980;DHT22;3016;50.308;8.258;2023-09-08T19:03:16;20.70;1.00
5980;DHT22;3016;50.308;8.258;2023-09-08T19:06:17;20.60;1.00
5980;DHT22;3016;50.308;8.258;2023-09-08T19:09:18;20.40;1.00
5980;DHT22;3016;50.308;8.258;2023-09-08T19:12:18;20.20;1.00
5980;DHT22;3016;50.308;8.258;2023-09-08T19:15:21;20.10;1.00
5980;DHT22;3016;50.308;8.258;2023-09-08T19:18:21;19.90;1.00
5980;DHT22;3016;50.308;8.258;2023-09-08T19:21:22;19.80;1.00
5980;DHT22;3016;50.308;8.258;2023-09-08T19:24:23;19.70;1.00
5980;DHT22;3016;50.308;8.258;2023-09-08T19:27:24;19.60;1.00
5980;DHT22;3016;50.308;8.258;2023-09-08T19:30:25;19.50;1.00
5980;DHT22;3016;50.308;8.258;2023-09-08T19:33:25;19.40;1.00
5980;DHT22;3016;50.308;8.258;2023-09-08T19:36:26;19.30;1.00
5980;DHT22;3016;50.308;8.258;2023-09-08T19:39:27;19.10;1.00
5980;DHT22;3016;50.308;8.258;2023-09-08T19:42:28;18.90;1.00
5980;DHT22;3016;50.308;8.258;2023-09-08T19:45:28;18.80;1.00
5980;DHT22;3016;50.308;8.258;2023-09-08T19:48:35;18.90;1.00
5980;DHT22;3016;50.308;8.258;2023-09-08T19:51:35;18.70;1.00
5980;DHT22;3016;50.308;8.258;2023-09-08T19:54:36;18.60;1.00
5980;DHT22;3016;50.308;8.258;2023-09-08T19:57:37;18.60;1.00
5980;DHT22;3016;50.308;8.258;2023-09-08T20:00:37;18.60;1.00
5980;DHT22;3016;50.308;8.258;2023-09-08T20:03:39;18.50;1.00